createdAt,value
2018-07-16T00:00:29.502Z,63.90
2018-07-16T00:02:58.051Z,64.00
2018-07-16T00:05:26.588Z,63.90
2018-07-16T00:07:55.133Z,64.10
2018-07-16T00:12:51.872Z,64.20
2018-07-16T00:15:20.365Z,64.10
2018-07-16T00:17:48.990Z,64.30
2018-07-16T00:20:17.513Z,64.30
2018-07-16T00:22:46.053Z,64.40
2018-07-16T00:25:14.907Z,64.40
2018-07-16T00:27:44.466Z,64.50
2018-07-16T00:30:13.038Z,64.40
2018-07-16T00:32:41.670Z,64.50
2018-07-16T00:35:10.401Z,64.60
2018-07-16T00:40:07.129Z,64.70
2018-07-16T00:42:35.672Z,64.70
2018-07-16T00:45:04.173Z,64.60
2018-07-16T00:47:32.718Z,64.60
2018-07-16T00:50:01.233Z,64.60
2018-07-16T00:52:29.736Z,64.60
2018-07-16T00:54:58.258Z,64.60
2018-07-16T00:57:26.755Z,64.50
2018-07-16T00:59:55.246Z,64.50
2018-07-16T01:02:23.785Z,64.50
2018-07-16T01:04:52.326Z,64.90
2018-07-16T01:07:20.846Z,64.60
2018-07-16T01:09:49.347Z,64.70
2018-07-16T01:12:17.890Z,64.70
2018-07-16T01:14:46.391Z,64.70
2018-07-16T01:17:14.875Z,64.80
2018-07-16T01:22:11.748Z,65.00
2018-07-16T01:24:40.277Z,64.90
2018-07-16T01:27:08.777Z,65.00
2018-07-16T01:29:37.271Z,65.10
2018-07-16T01:32:05.787Z,65.00
2018-07-16T01:34:34.441Z,65.00
2018-07-16T01:37:02.980Z,65.10
2018-07-16T01:39:31.524Z,65.10
2018-07-16T01:42:00.037Z,65.10
2018-07-16T01:44:28.553Z,65.10
2018-07-16T01:46:57.069Z,65.10
2018-07-16T01:49:25.545Z,65.10
2018-07-16T01:51:54.052Z,65.10
2018-07-16T01:54:22.581Z,65.00
2018-07-16T01:56:51.124Z,65.10
2018-07-16T01:59:19.705Z,65.20
2018-07-16T02:01:48.217Z,65.20
2018-07-16T02:06:45.026Z,65.30
2018-07-16T02:09:13.513Z,65.20
2018-07-16T02:11:42.030Z,65.20
2018-07-16T02:14:10.538Z,65.10
2018-07-16T02:16:39.083Z,65.20
2018-07-16T02:19:07.677Z,65.30
2018-07-16T02:21:36.205Z,65.30
2018-07-16T02:24:04.726Z,65.40
2018-07-16T02:26:33.210Z,65.30
2018-07-16T02:29:01.656Z,65.40
2018-07-16T02:31:30.140Z,65.40
2018-07-16T02:33:58.579Z,65.50
2018-07-16T02:36:27.038Z,65.50
2018-07-16T02:38:55.488Z,65.50
2018-07-16T02:41:23.967Z,65.50
2018-07-16T02:43:52.394Z,65.50
2018-07-16T02:46:20.863Z,65.60
2018-07-16T02:51:17.498Z,65.60
2018-07-16T02:53:45.998Z,65.60
2018-07-16T02:56:14.513Z,65.60
2018-07-16T02:58:42.918Z,65.60
2018-07-16T03:01:11.346Z,66.30
2018-07-16T03:03:39.823Z,65.60
2018-07-16T03:06:08.275Z,65.70
2018-07-16T03:08:36.747Z,65.70
2018-07-16T03:11:05.195Z,65.70
2018-07-16T03:13:33.688Z,65.70
2018-07-16T03:16:02.147Z,65.70
2018-07-16T03:18:30.663Z,65.80
2018-07-16T03:23:27.292Z,65.80
2018-07-16T03:25:55.715Z,66.40
2018-07-16T03:30:52.328Z,65.80
2018-07-16T03:33:21.101Z,65.80
2018-07-16T03:35:49.555Z,65.80
2018-07-16T03:40:46.187Z,65.80
2018-07-16T03:43:14.740Z,65.90
2018-07-16T03:45:43.264Z,65.80
2018-07-16T03:48:11.780Z,65.70
2018-07-16T03:53:08.498Z,65.80
2018-07-16T03:55:37.038Z,65.80
2018-07-16T03:58:05.558Z,65.80
2018-07-16T04:00:34.066Z,65.80
2018-07-16T04:03:02.543Z,65.80
2018-07-16T04:05:31.042Z,65.80
2018-07-16T04:07:59.543Z,65.90
2018-07-16T04:10:28.110Z,65.90
2018-07-16T04:12:56.639Z,65.80
2018-07-16T04:17:53.418Z,65.90
2018-07-16T04:20:21.967Z,65.90
2018-07-16T04:22:50.395Z,65.90
2018-07-16T04:25:18.850Z,65.90
2018-07-16T04:27:47.308Z,65.90
2018-07-16T04:30:15.885Z,66.00
2018-07-16T04:32:44.370Z,65.90
2018-07-16T04:35:12.828Z,65.80
2018-07-16T04:37:41.340Z,66.00
2018-07-16T04:40:09.831Z,65.90
2018-07-16T04:42:38.350Z,66.00
2018-07-16T04:45:06.830Z,66.30
2018-07-16T04:47:35.323Z,65.90
2018-07-16T04:50:03.773Z,65.60
2018-07-16T04:52:32.255Z,66.10
2018-07-16T04:55:00.744Z,65.00
2018-07-16T04:57:29.235Z,65.00
2018-07-16T04:59:57.699Z,64.90
2018-07-16T05:02:26.230Z,64.90
2018-07-16T05:04:54.718Z,65.00
2018-07-16T05:07:23.225Z,65.40
2018-07-16T05:09:51.708Z,65.20
2018-07-16T05:14:48.391Z,65.30
2018-07-16T05:17:16.889Z,65.40
2018-07-16T05:19:45.485Z,65.40
2018-07-16T05:22:13.990Z,65.50
2018-07-16T05:24:42.601Z,65.60
2018-07-16T05:27:11.097Z,65.60
2018-07-16T05:29:39.551Z,65.80
2018-07-16T05:32:08.074Z,65.80
2018-07-16T05:34:36.567Z,65.90
2018-07-16T05:39:33.266Z,65.90
2018-07-16T05:42:01.785Z,65.80
2018-07-16T05:44:30.314Z,65.80
2018-07-16T05:46:58.800Z,65.70
2018-07-16T05:49:27.310Z,65.50
2018-07-16T05:51:55.777Z,65.40
2018-07-16T05:54:24.261Z,65.40
2018-07-16T05:56:52.750Z,65.30
2018-07-16T05:59:21.404Z,65.40
2018-07-16T06:01:49.946Z,65.10
2018-07-16T06:04:18.473Z,65.10
2018-07-16T06:06:46.952Z,65.20
2018-07-16T06:09:15.414Z,65.20
2018-07-16T06:11:43.964Z,64.90
2018-07-16T06:14:12.453Z,64.90
2018-07-16T06:16:41.036Z,64.70
2018-07-16T06:19:09.572Z,64.60
2018-07-16T06:21:38.166Z,64.60
2018-07-16T06:24:06.996Z,64.50
2018-07-16T06:26:35.481Z,64.50
2018-07-16T06:29:04.028Z,65.20
2018-07-16T06:31:32.565Z,64.40
2018-07-16T06:34:01.049Z,64.40
2018-07-16T06:36:29.578Z,64.40
2018-07-16T06:38:58.054Z,64.30
2018-07-16T06:41:26.840Z,64.40
2018-07-16T06:46:23.283Z,64.50
2018-07-16T06:48:51.776Z,64.40
2018-07-16T06:51:20.276Z,64.40
2018-07-16T06:53:48.773Z,64.20
2018-07-16T06:56:17.314Z,64.30
2018-07-16T07:01:13.992Z,64.30
2018-07-16T07:03:42.485Z,64.20
2018-07-16T07:06:10.961Z,64.10
2018-07-16T07:08:39.438Z,64.20
2018-07-16T07:11:07.931Z,64.10
2018-07-16T07:13:36.400Z,63.90
2018-07-16T07:16:05.001Z,63.80
2018-07-16T07:18:33.616Z,63.80
2018-07-16T07:21:02.105Z,63.50
2018-07-16T07:23:30.567Z,63.40
2018-07-16T07:25:59.099Z,63.40
2018-07-16T07:28:27.586Z,63.20
2018-07-16T07:30:56.125Z,63.10
2018-07-16T07:33:24.800Z,62.80
2018-07-16T07:35:53.314Z,62.80
2018-07-16T07:38:21.802Z,62.80
2018-07-16T07:40:50.356Z,62.40
2018-07-16T07:45:47.041Z,62.30
2018-07-16T07:48:15.504Z,62.50
2018-07-16T07:53:12.179Z,62.60
2018-07-16T07:55:40.700Z,62.50
2018-07-16T07:58:09.163Z,62.40
2018-07-16T08:00:37.739Z,62.10
2018-07-16T08:05:34.535Z,62.00
2018-07-16T08:08:03.060Z,61.90
2018-07-16T08:10:31.534Z,61.80
2018-07-16T08:13:00.079Z,61.80
2018-07-16T08:15:28.552Z,61.60
2018-07-16T08:17:57.080Z,61.60
2018-07-16T08:20:25.616Z,61.50
2018-07-16T08:22:54.262Z,61.40
2018-07-16T08:25:22.796Z,61.30
2018-07-16T08:27:51.330Z,61.20
2018-07-16T08:30:19.854Z,61.10
2018-07-16T08:35:16.648Z,60.90
2018-07-16T08:37:45.137Z,60.80
2018-07-16T08:40:13.713Z,60.80
2018-07-16T08:42:42.243Z,60.70
2018-07-16T08:45:10.750Z,60.60
2018-07-16T08:47:39.288Z,60.60
2018-07-16T08:50:07.745Z,60.40
2018-07-16T08:55:04.446Z,60.30
2018-07-16T08:57:32.945Z,60.20
2018-07-16T09:00:01.501Z,60.10
2018-07-16T09:02:29.970Z,59.90
2018-07-16T09:07:26.658Z,59.80
2018-07-16T09:09:55.148Z,59.90
2018-07-16T09:12:24.435Z,59.70
2018-07-16T09:14:52.921Z,59.70
2018-07-16T09:17:21.494Z,59.60
2018-07-16T09:19:50.088Z,59.50
2018-07-16T09:22:18.533Z,59.30
2018-07-16T09:24:46.995Z,59.20
2018-07-16T09:27:15.514Z,59.10
2018-07-16T09:29:44.014Z,59.20
2018-07-16T09:32:12.662Z,59.30
2018-07-16T09:34:41.177Z,59.20
2018-07-16T09:37:09.643Z,59.30
2018-07-16T09:39:38.179Z,59.30
2018-07-16T09:42:06.660Z,59.40
2018-07-16T09:47:03.350Z,59.10
2018-07-16T09:49:31.870Z,58.90
2018-07-16T09:52:00.384Z,59.00
2018-07-16T09:54:28.820Z,58.90
2018-07-16T09:56:57.313Z,58.90
2018-07-16T09:59:25.833Z,58.90
2018-07-16T10:01:59.484Z,58.90
2018-07-16T10:04:27.948Z,58.70
2018-07-16T10:09:24.918Z,58.30
2018-07-16T10:11:53.426Z,58.20
2018-07-16T10:14:22.232Z,58.20
2018-07-16T10:16:50.797Z,58.10
2018-07-16T10:19:19.286Z,58.10
2018-07-16T10:21:47.832Z,57.90
2018-07-16T10:24:16.540Z,57.80
2018-07-16T10:29:13.200Z,57.60
2018-07-16T10:31:41.792Z,57.40
2018-07-16T10:34:10.266Z,57.40
2018-07-16T10:36:38.835Z,57.20
2018-07-16T10:39:07.933Z,57.20
2018-07-16T10:41:36.648Z,57.40
2018-07-16T10:44:05.239Z,57.40
2018-07-16T10:46:33.718Z,57.30
2018-07-16T10:49:02.247Z,57.30
2018-07-16T10:51:30.754Z,57.20
2018-07-16T10:53:59.304Z,57.30
2018-07-16T10:56:27.787Z,57.30
2018-07-16T11:01:24.582Z,57.30
2018-07-16T11:03:53.099Z,57.70
2018-07-16T11:06:21.599Z,57.10
2018-07-16T11:08:50.658Z,57.10
2018-07-16T11:11:19.149Z,57.10
2018-07-16T11:13:47.726Z,57.20
2018-07-16T11:16:16.318Z,57.40
2018-07-16T11:18:44.915Z,57.30
2018-07-16T11:21:13.426Z,57.40
2018-07-16T11:23:41.908Z,57.30
2018-07-16T11:26:10.458Z,57.20
2018-07-16T11:28:38.924Z,56.90
2018-07-16T11:33:35.662Z,56.80
2018-07-16T11:36:04.144Z,56.70
2018-07-16T11:38:32.665Z,56.70
2018-07-16T11:41:01.142Z,56.70
2018-07-16T11:43:29.628Z,56.70
2018-07-16T11:48:26.260Z,56.20
2018-07-16T11:50:54.789Z,56.20
2018-07-16T11:53:23.240Z,56.20
2018-07-16T11:55:51.919Z,56.20
2018-07-16T11:58:20.715Z,55.80
2018-07-16T12:00:49.302Z,55.60
2018-07-16T12:03:18.219Z,55.60
2018-07-16T12:05:46.873Z,55.70
2018-07-16T12:08:15.411Z,55.90
2018-07-16T12:10:44.149Z,55.80
2018-07-16T12:13:12.932Z,55.70
2018-07-16T12:15:41.713Z,55.70
2018-07-16T12:18:10.308Z,56.30
2018-07-16T12:20:39.829Z,55.70
2018-07-16T12:23:08.344Z,55.60
2018-07-16T12:25:36.990Z,55.40
2018-07-16T12:28:05.608Z,55.30
2018-07-16T12:30:34.124Z,55.00
2018-07-16T12:33:02.688Z,54.80
2018-07-16T12:35:31.146Z,54.30
2018-07-16T12:37:59.615Z,54.20
2018-07-16T12:40:28.090Z,54.00
2018-07-16T12:42:56.598Z,53.80
2018-07-16T12:45:25.082Z,53.70
2018-07-16T12:47:53.636Z,53.50
2018-07-16T12:52:50.276Z,53.40
2018-07-16T12:55:18.829Z,53.30
2018-07-16T12:57:47.315Z,53.30
2018-07-16T13:00:15.770Z,53.30
2018-07-16T13:02:44.268Z,53.30
2018-07-16T13:05:12.801Z,53.30
2018-07-16T13:07:41.295Z,53.50
2018-07-16T13:10:09.827Z,53.70
2018-07-16T13:12:38.292Z,53.80
2018-07-16T13:15:06.763Z,53.90
2018-07-16T13:20:03.578Z,54.20
2018-07-16T13:22:32.229Z,54.10
2018-07-16T13:27:28.846Z,53.80
2018-07-16T13:29:57.432Z,53.40
2018-07-16T13:32:25.888Z,53.20
2018-07-16T13:34:54.357Z,53.10
2018-07-16T13:37:22.904Z,52.90
2018-07-16T13:39:51.373Z,52.80
2018-07-16T13:42:19.845Z,52.60
2018-07-16T13:44:48.367Z,52.30
2018-07-16T13:47:16.855Z,52.20
2018-07-16T13:49:45.398Z,52.40
2018-07-16T13:52:13.896Z,52.50
2018-07-16T13:54:42.392Z,52.50
2018-07-16T13:57:10.891Z,52.70
2018-07-16T13:59:39.447Z,52.70
2018-07-16T14:02:08.049Z,52.80
2018-07-16T14:07:04.788Z,53.00
2018-07-16T14:09:33.250Z,52.90
2018-07-16T14:14:29.974Z,53.10
2018-07-16T14:16:58.513Z,53.10
2018-07-16T14:19:27.009Z,52.90
2018-07-16T14:21:55.499Z,52.80
2018-07-16T14:24:24.008Z,52.50
2018-07-16T14:26:52.535Z,52.30
2018-07-16T14:29:21.003Z,52.20
2018-07-16T14:31:49.499Z,52.20
2018-07-16T14:34:17.993Z,52.30
2018-07-16T14:36:46.588Z,52.40
2018-07-16T14:39:15.144Z,52.50
2018-07-16T14:41:43.676Z,52.70
2018-07-16T14:44:12.170Z,52.50
2018-07-16T14:46:40.680Z,52.70
2018-07-16T14:49:10.147Z,52.70
2018-07-16T14:54:06.897Z,52.10
2018-07-16T14:56:35.591Z,52.00
2018-07-16T14:59:04.075Z,51.50
2018-07-16T15:01:32.683Z,51.70
2018-07-16T15:04:01.173Z,51.70
2018-07-16T15:06:29.708Z,51.20
2018-07-16T15:08:58.190Z,51.10
2018-07-16T15:11:26.683Z,50.90
2018-07-16T15:13:55.168Z,50.70
2018-07-16T15:16:23.665Z,50.60
2018-07-16T15:18:52.251Z,50.40
2018-07-16T15:21:21.064Z,50.20
2018-07-16T15:26:17.410Z,50.40
2018-07-16T15:28:45.953Z,50.00
2018-07-16T15:31:14.458Z,50.10
2018-07-16T15:33:42.983Z,50.00
2018-07-16T15:36:11.520Z,49.90
2018-07-16T15:38:40.052Z,50.00
2018-07-16T15:41:08.592Z,49.90
2018-07-16T15:43:37.143Z,50.60
2018-07-16T15:48:33.896Z,50.10
2018-07-16T15:51:02.357Z,50.00
2018-07-16T15:53:30.891Z,49.90
2018-07-16T15:55:59.383Z,49.30
2018-07-16T15:58:27.888Z,49.30
2018-07-16T16:00:56.408Z,49.30
2018-07-16T16:03:24.909Z,49.40
2018-07-16T16:05:53.424Z,49.40
2018-07-16T16:08:21.903Z,49.50
2018-07-16T16:10:50.360Z,49.50
2018-07-16T16:13:18.878Z,49.40
2018-07-16T16:15:47.368Z,49.90
2018-07-16T16:18:15.956Z,49.20
2018-07-16T16:20:44.445Z,49.20
2018-07-16T16:23:13.013Z,49.30
2018-07-16T16:25:41.462Z,49.30
2018-07-16T16:28:10.000Z,49.30
2018-07-16T16:30:38.479Z,49.20
2018-07-16T16:33:07.282Z,49.20
2018-07-16T16:38:03.973Z,49.10
2018-07-16T16:40:32.482Z,49.10
2018-07-16T16:43:01.072Z,49.00
2018-07-16T16:45:29.549Z,49.40
2018-07-16T16:47:58.184Z,49.60
2018-07-16T16:50:26.654Z,49.60
2018-07-16T16:52:55.276Z,49.70
2018-07-16T16:55:23.816Z,49.60
2018-07-16T16:57:52.309Z,49.50
2018-07-16T17:00:20.814Z,49.40
2018-07-16T17:02:49.346Z,49.10
2018-07-16T17:05:17.868Z,48.90
2018-07-16T17:07:46.318Z,48.90
2018-07-16T17:10:14.819Z,48.90
2018-07-16T17:12:43.305Z,48.90
2018-07-16T17:15:11.803Z,48.90
2018-07-16T17:17:40.296Z,48.80
2018-07-16T17:20:08.814Z,48.90
2018-07-16T17:22:37.299Z,49.20
2018-07-16T17:25:05.863Z,49.30
2018-07-16T17:27:34.335Z,49.30
2018-07-16T17:30:02.850Z,49.30
2018-07-16T17:32:31.334Z,49.30
2018-07-16T17:34:59.855Z,49.30
2018-07-16T17:37:28.318Z,49.20
2018-07-16T17:39:56.834Z,49.30
2018-07-16T17:42:25.310Z,49.30
2018-07-16T17:44:53.853Z,49.30
2018-07-16T17:47:22.327Z,49.30
2018-07-16T17:49:50.839Z,49.30
2018-07-16T17:54:47.556Z,49.40
2018-07-16T17:57:16.015Z,49.30
2018-07-16T17:59:44.527Z,49.30
2018-07-16T18:02:12.992Z,49.30
2018-07-16T18:04:41.578Z,49.30
2018-07-16T18:07:10.119Z,49.40
2018-07-16T18:09:38.826Z,49.30
2018-07-16T18:14:35.753Z,49.30
2018-07-16T18:17:04.428Z,49.50
2018-07-16T18:19:32.912Z,49.40
2018-07-16T18:22:01.405Z,49.50
2018-07-16T18:24:29.907Z,49.40
2018-07-16T18:26:58.428Z,49.40
2018-07-16T18:29:26.898Z,49.50
2018-07-16T18:31:55.426Z,49.50
2018-07-16T18:34:24.069Z,50.10
2018-07-16T18:36:52.548Z,49.50
2018-07-16T18:39:21.025Z,49.70
2018-07-16T18:41:49.529Z,49.70
2018-07-16T18:44:18.035Z,49.70
2018-07-16T18:46:46.511Z,49.70
2018-07-16T18:49:15.035Z,49.80
2018-07-16T18:51:43.526Z,49.80
2018-07-16T18:54:12.028Z,49.80
2018-07-16T18:56:40.499Z,49.80
2018-07-16T18:59:08.994Z,49.90
2018-07-16T19:01:37.505Z,49.90
2018-07-16T19:04:06.035Z,49.80
2018-07-16T19:06:34.523Z,49.90
2018-07-16T19:09:03.111Z,49.90
2018-07-16T19:11:31.569Z,50.00
2018-07-16T19:14:00.137Z,49.90
2018-07-16T19:16:28.660Z,50.00
2018-07-16T19:18:57.174Z,50.10
2018-07-16T19:21:25.676Z,50.30
2018-07-16T19:23:54.203Z,50.40
2018-07-16T19:26:22.705Z,50.50
2018-07-16T19:28:51.204Z,50.50
2018-07-16T19:31:19.688Z,50.70
2018-07-16T19:33:48.211Z,50.80
2018-07-16T19:36:16.721Z,50.70
2018-07-16T19:38:45.309Z,50.80
2018-07-16T19:41:13.784Z,50.90
2018-07-16T19:43:42.320Z,51.00
2018-07-16T19:46:10.843Z,51.20
2018-07-16T19:48:39.338Z,51.30
2018-07-16T19:51:07.854Z,51.40
2018-07-16T19:53:36.366Z,51.60
2018-07-16T19:56:04.848Z,51.60
2018-07-16T19:58:33.409Z,51.60
2018-07-16T20:03:30.155Z,51.90
2018-07-16T20:05:58.657Z,52.00
2018-07-16T20:08:27.128Z,52.10
2018-07-16T20:10:55.671Z,52.50
2018-07-16T20:13:24.232Z,52.20
2018-07-16T20:15:52.777Z,52.30
2018-07-16T20:18:21.274Z,52.50
2018-07-16T20:20:53.647Z,52.60
2018-07-16T20:23:22.087Z,52.70
2018-07-16T20:25:51.206Z,52.80
2018-07-16T20:28:19.731Z,53.00
2018-07-16T20:30:48.455Z,53.10
2018-07-16T20:33:17.105Z,53.30
2018-07-16T20:38:14.411Z,53.50
2018-07-16T20:43:11.062Z,53.70
2018-07-16T20:45:39.576Z,53.80
2018-07-16T20:48:08.067Z,54.00
2018-07-16T20:50:36.560Z,54.10
2018-07-16T20:53:05.139Z,54.10
2018-07-16T20:55:33.651Z,54.30
2018-07-16T20:58:02.204Z,54.30
2018-07-16T21:00:30.647Z,54.40
2018-07-16T21:02:59.147Z,54.60
2018-07-16T21:05:27.623Z,54.70
2018-07-16T21:07:56.189Z,55.20
2018-07-16T21:10:24.708Z,54.70
2018-07-16T21:12:53.212Z,54.70
2018-07-16T21:17:50.007Z,54.90
2018-07-16T21:20:18.507Z,54.90
2018-07-16T21:22:47.052Z,54.90
2018-07-16T21:25:15.544Z,55.10
2018-07-16T21:27:44.038Z,55.20
2018-07-16T21:30:12.567Z,55.30
2018-07-16T21:32:41.128Z,55.90
2018-07-16T21:35:09.655Z,55.30
2018-07-16T21:37:38.165Z,55.30
2018-07-16T21:40:06.698Z,55.50
2018-07-16T21:42:35.192Z,55.60
2018-07-16T21:45:03.688Z,55.70
2018-07-16T21:47:32.176Z,55.80
2018-07-16T21:50:00.642Z,55.80
2018-07-16T21:52:29.144Z,55.90
2018-07-16T21:54:57.658Z,55.90
2018-07-16T21:57:26.188Z,56.00
2018-07-16T21:59:54.800Z,56.50
2018-07-16T22:02:23.314Z,56.10
2018-07-16T22:04:51.795Z,56.30
2018-07-16T22:07:20.308Z,56.20
2018-07-16T22:12:16.969Z,56.20
2018-07-16T22:14:45.493Z,56.20
2018-07-16T22:17:14.044Z,56.30
2018-07-16T22:19:42.569Z,56.40
2018-07-16T22:22:11.052Z,56.50
2018-07-16T22:24:39.731Z,56.60
2018-07-16T22:27:08.280Z,56.60
2018-07-16T22:32:05.060Z,57.30
2018-07-16T22:34:33.648Z,56.70
2018-07-16T22:39:30.402Z,57.00
2018-07-16T22:41:58.917Z,56.90
2018-07-16T22:44:27.489Z,57.00
2018-07-16T22:46:56.472Z,57.10
2018-07-16T22:49:24.919Z,57.10
2018-07-16T22:51:53.515Z,57.20
2018-07-16T22:54:22.052Z,57.20
2018-07-16T22:56:50.526Z,57.30
2018-07-16T23:01:47.247Z,57.40
2018-07-16T23:04:15.789Z,57.50
2018-07-16T23:06:44.302Z,57.50
2018-07-16T23:09:12.840Z,57.60
2018-07-16T23:11:41.422Z,57.60
2018-07-16T23:14:09.879Z,57.70
2018-07-16T23:16:38.506Z,57.60
2018-07-16T23:19:07.105Z,57.70
2018-07-16T23:24:03.830Z,57.80
2018-07-16T23:26:32.376Z,57.90
2018-07-16T23:29:01.061Z,57.90
2018-07-16T23:33:57.784Z,58.10
2018-07-16T23:36:26.336Z,58.10
2018-07-16T23:38:55.001Z,58.20
2018-07-16T23:41:23.504Z,58.20
2018-07-16T23:43:52.163Z,58.20
2018-07-16T23:48:48.931Z,58.40
2018-07-16T23:56:13.887Z,58.50
2018-07-16T23:58:42.437Z,58.50
